createdAt,value
2023-05-05T00:01:07.831Z,22.00
2023-05-05T00:03:37.372Z,24.63
2023-05-05T00:06:07.166Z,23.27
2023-05-05T00:08:36.831Z,21.98
2023-05-05T00:11:06.134Z,22.13
2023-05-05T00:13:35.437Z,16.88
2023-05-05T00:16:05.222Z,21.08
2023-05-05T00:18:34.885Z,24.27
2023-05-05T00:21:05.693Z,17.52
2023-05-05T00:23:34.872Z,20.65
2023-05-05T00:26:04.317Z,22.05
2023-05-05T00:28:33.585Z,19.80
2023-05-05T00:31:03.675Z,19.33
2023-05-05T00:33:32.720Z,18.90
2023-05-05T00:36:02.618Z,20.38
2023-05-05T00:38:31.664Z,19.23
2023-05-05T00:41:01.338Z,21.40
2023-05-05T00:43:30.632Z,21.92
2023-05-05T00:46:28.129Z,22.15
2023-05-05T00:48:59.011Z,16.67
2023-05-05T00:51:30.073Z,19.77
2023-05-05T00:54:00.257Z,15.18
2023-05-05T00:56:29.741Z,19.67
2023-05-05T00:59:00.387Z,17.80
2023-05-05T01:01:29.779Z,16.10
2023-05-05T01:03:58.991Z,16.85
2023-05-05T01:06:28.480Z,15.75
2023-05-05T01:09:13.908Z,16.85
2023-05-05T01:12:06.979Z,15.05
2023-05-05T01:14:46.645Z,15.82
2023-05-05T01:17:22.713Z,16.08
2023-05-05T01:20:08.768Z,16.98
2023-05-05T01:22:47.418Z,18.75
2023-05-05T01:25:47.617Z,17.75
2023-05-05T01:28:57.165Z,17.58
2023-05-05T01:31:58.063Z,16.92
2023-05-05T01:34:43.325Z,19.33
2023-05-05T01:37:30.770Z,17.48
2023-05-05T01:40:06.489Z,29.15
2023-05-05T01:42:38.638Z,25.65
2023-05-05T01:45:11.045Z,21.65
2023-05-05T01:47:44.187Z,30.98
2023-05-05T01:50:15.361Z,24.80
2023-05-05T01:52:46.435Z,22.98
2023-05-05T01:55:19.610Z,25.67
2023-05-05T01:57:52.557Z,18.67
2023-05-05T02:00:23.174Z,19.42
2023-05-05T02:02:53.299Z,19.00
2023-05-05T02:05:24.633Z,19.50
2023-05-05T02:07:59.312Z,17.25
2023-05-05T02:10:30.371Z,20.08
2023-05-05T02:13:03.041Z,20.30
2023-05-05T02:15:34.954Z,18.77
2023-05-05T02:18:06.884Z,18.13
2023-05-05T02:20:40.119Z,14.95
2023-05-05T02:23:09.919Z,21.23
2023-05-05T02:25:43.241Z,15.30
2023-05-05T02:28:44.553Z,17.27
2023-05-05T02:31:15.338Z,17.65
2023-05-05T02:33:45.938Z,14.80
2023-05-05T02:36:24.420Z,16.38
2023-05-05T02:39:05.868Z,12.32
2023-05-05T02:41:41.769Z,13.32
2023-05-05T02:44:21.413Z,13.20
2023-05-05T02:46:51.240Z,16.10
2023-05-05T02:49:21.312Z,11.48
2023-05-05T02:51:50.856Z,14.57
2023-05-05T02:54:26.284Z,13.07
2023-05-05T02:56:58.627Z,10.73
2023-05-05T03:00:06.989Z,9.45
2023-05-05T03:02:58.980Z,8.82
2023-05-05T03:08:29.603Z,12.63
2023-05-05T03:13:48.650Z,12.82
2023-05-05T03:16:24.027Z,10.18
2023-05-05T03:18:55.473Z,20.38
2023-05-05T03:21:25.759Z,21.27
2023-05-05T03:23:54.922Z,25.77
2023-05-05T03:26:25.847Z,26.27
2023-05-05T03:28:55.048Z,26.33
2023-05-05T03:31:29.858Z,25.05
2023-05-05T03:34:02.245Z,25.55
2023-05-05T03:36:38.092Z,19.90
2023-05-05T03:39:09.938Z,24.30
2023-05-05T03:41:39.960Z,24.92
2023-05-05T03:44:11.044Z,25.85
2023-05-05T03:46:40.584Z,24.58
2023-05-05T03:49:13.324Z,17.95
2023-05-05T03:51:44.523Z,20.92
2023-05-05T03:54:15.015Z,22.77
2023-05-05T03:56:44.648Z,28.98
2023-05-05T03:59:13.823Z,24.58
2023-05-05T04:01:43.976Z,25.10
2023-05-05T04:04:13.384Z,23.88
2023-05-05T04:06:43.709Z,26.90
2023-05-05T04:09:13.540Z,23.00
2023-05-05T04:11:43.330Z,23.75
2023-05-05T04:14:13.421Z,25.58
2023-05-05T04:16:47.806Z,31.30
2023-05-05T04:19:17.259Z,25.48
2023-05-05T04:21:47.128Z,27.38
2023-05-05T04:24:16.569Z,22.92
2023-05-05T04:26:46.941Z,25.42
2023-05-05T04:29:16.630Z,25.65
2023-05-05T04:31:46.376Z,30.50
2023-05-05T04:34:16.572Z,29.80
2023-05-05T04:36:46.551Z,31.75
2023-05-05T04:39:16.164Z,19.85
2023-05-05T04:41:45.783Z,21.02
2023-05-05T04:44:17.428Z,21.77
2023-05-05T04:46:47.008Z,15.60
2023-05-05T04:49:16.303Z,21.13
2023-05-05T04:51:45.837Z,17.88
2023-05-05T04:54:15.195Z,20.73
2023-05-05T04:56:44.941Z,22.13
2023-05-05T04:59:14.926Z,20.33
2023-05-05T05:01:44.398Z,25.17
2023-05-05T05:04:14.025Z,16.95
2023-05-05T05:06:43.675Z,23.08
2023-05-05T05:09:13.253Z,20.60
2023-05-05T05:11:42.754Z,22.17
2023-05-05T05:14:12.127Z,23.17
2023-05-05T05:16:41.692Z,16.10
2023-05-05T05:19:11.033Z,17.80
2023-05-05T05:21:40.813Z,15.77
2023-05-05T05:24:12.260Z,14.52
2023-05-05T05:26:41.670Z,16.88
2023-05-05T05:29:11.214Z,12.05
2023-05-05T05:31:41.229Z,19.42
2023-05-05T05:34:12.588Z,13.32
2023-05-05T05:36:43.744Z,12.95
2023-05-05T05:39:13.549Z,20.85
2023-05-05T05:41:44.215Z,14.25
2023-05-05T05:44:13.761Z,19.13
2023-05-05T05:46:43.967Z,11.45
2023-05-05T05:49:13.936Z,11.18
2023-05-05T05:51:43.817Z,13.95
2023-05-05T05:54:13.135Z,19.15
2023-05-05T05:56:43.949Z,16.83
2023-05-05T05:59:14.354Z,21.92
2023-05-05T06:01:44.439Z,14.50
2023-05-05T06:04:14.400Z,18.52
2023-05-05T06:06:44.087Z,24.27
2023-05-05T06:09:14.310Z,18.92
2023-05-05T06:11:44.862Z,20.17
2023-05-05T06:14:14.897Z,23.52
2023-05-05T06:16:45.390Z,18.92
2023-05-05T06:19:18.976Z,22.05
2023-05-05T06:21:48.709Z,24.73
2023-05-05T06:24:18.427Z,22.25
2023-05-05T06:26:48.138Z,24.75
2023-05-05T06:29:17.656Z,21.27
2023-05-05T06:31:47.324Z,19.20
2023-05-05T06:34:16.742Z,16.92
2023-05-05T06:36:46.227Z,18.92
2023-05-05T06:39:16.255Z,22.25
2023-05-05T06:41:45.680Z,22.25
2023-05-05T06:44:15.118Z,13.18
2023-05-05T06:46:44.896Z,16.95
2023-05-05T06:49:15.396Z,15.95
2023-05-05T06:51:44.935Z,15.50
2023-05-05T06:54:15.528Z,21.17
2023-05-05T06:56:45.564Z,14.65
2023-05-05T06:59:14.949Z,19.63
2023-05-05T07:01:44.602Z,13.82
2023-05-05T07:04:14.584Z,14.70
2023-05-05T07:06:44.513Z,13.68
2023-05-05T07:09:15.238Z,14.50
2023-05-05T07:11:46.866Z,14.85
2023-05-05T07:14:16.694Z,12.07
2023-05-05T07:16:45.994Z,17.55
2023-05-05T07:19:15.658Z,21.80
2023-05-05T07:24:14.200Z,27.05
2023-05-05T07:26:44.387Z,25.80
2023-05-05T07:29:14.436Z,27.70
2023-05-05T07:31:44.038Z,28.00
2023-05-05T07:34:13.586Z,26.10
2023-05-05T07:36:44.296Z,26.02
2023-05-05T07:39:16.042Z,23.02
2023-05-05T07:41:46.324Z,33.30
2023-05-05T07:44:15.568Z,27.48
2023-05-05T07:46:45.202Z,21.42
2023-05-05T07:49:14.468Z,27.38
2023-05-05T07:51:43.779Z,22.42
2023-05-05T07:54:14.292Z,30.35
2023-05-05T07:56:43.457Z,21.63
2023-05-05T07:59:14.108Z,18.75
2023-05-05T08:01:43.549Z,17.15
2023-05-05T08:04:12.814Z,16.67
2023-05-05T08:06:42.413Z,19.38
2023-05-05T08:09:12.233Z,15.45
2023-05-05T08:11:42.473Z,17.50
2023-05-05T08:14:12.227Z,17.83
2023-05-05T08:16:42.157Z,14.48
2023-05-05T08:19:25.108Z,13.80
2023-05-05T08:22:00.017Z,15.35
2023-05-05T08:24:30.800Z,18.05
2023-05-05T08:27:00.065Z,17.55
2023-05-05T08:29:29.517Z,17.70
2023-05-05T08:31:59.202Z,16.02
2023-05-05T08:34:28.620Z,18.45
2023-05-05T08:36:57.785Z,14.35
2023-05-05T08:39:27.352Z,18.10
2023-05-05T08:41:56.426Z,13.10
2023-05-05T08:44:28.066Z,13.15
2023-05-05T08:46:58.106Z,14.95
2023-05-05T08:49:28.880Z,12.25
2023-05-05T08:52:02.900Z,9.50
2023-05-05T08:54:36.523Z,13.38
2023-05-05T08:57:11.521Z,13.80
2023-05-05T08:59:42.638Z,6.68
2023-05-05T09:02:13.972Z,9.05
2023-05-05T09:04:44.387Z,8.00
2023-05-05T09:07:14.116Z,7.43
2023-05-05T09:09:44.155Z,8.60
2023-05-05T09:12:18.990Z,8.10
2023-05-05T09:14:48.828Z,8.98
2023-05-05T09:17:28.113Z,6.85
2023-05-05T09:20:11.549Z,5.65
2023-05-05T09:22:43.737Z,7.70
2023-05-05T09:25:17.700Z,7.70
2023-05-05T09:27:49.925Z,11.93
2023-05-05T09:30:25.734Z,13.82
2023-05-05T09:32:56.736Z,12.10
2023-05-05T09:35:28.142Z,10.13
2023-05-05T09:37:58.071Z,7.10
2023-05-05T09:40:27.935Z,11.25
2023-05-05T09:43:04.043Z,10.63
2023-05-05T09:45:41.318Z,12.95
2023-05-05T09:48:29.266Z,9.07
2023-05-05T09:51:00.114Z,15.40
2023-05-05T09:53:41.184Z,10.73
2023-05-05T09:56:11.288Z,9.30
2023-05-05T09:58:40.870Z,15.57
2023-05-05T10:01:24.329Z,9.43
2023-05-05T10:03:53.812Z,9.80
2023-05-05T10:06:41.358Z,10.25
2023-05-05T10:09:10.585Z,13.02
2023-05-05T10:11:42.997Z,11.50
2023-05-05T10:14:18.977Z,14.82
2023-05-05T10:16:51.773Z,11.30
2023-05-05T10:19:23.263Z,11.82
2023-05-05T10:22:00.834Z,13.73
2023-05-05T10:24:44.351Z,14.60
2023-05-05T10:27:22.086Z,12.48
2023-05-05T10:30:08.275Z,10.70
2023-05-05T10:33:07.912Z,10.30
2023-05-05T10:35:53.737Z,16.60
2023-05-05T10:38:26.217Z,12.65
2023-05-05T10:43:26.917Z,8.68
2023-05-05T10:45:57.542Z,9.23
2023-05-05T10:48:52.376Z,9.05
2023-05-05T10:51:41.183Z,11.48
2023-05-05T10:54:48.023Z,12.38
2023-05-05T10:57:20.173Z,13.20
2023-05-05T10:59:49.804Z,12.13
2023-05-05T11:02:29.705Z,12.65
2023-05-05T11:05:05.763Z,10.63
2023-05-05T11:07:38.437Z,12.32
2023-05-05T11:10:10.341Z,13.07
2023-05-05T11:13:12.621Z,11.13
2023-05-05T11:15:42.816Z,11.52
2023-05-05T11:18:40.309Z,14.35
2023-05-05T11:21:19.568Z,15.82
2023-05-05T11:23:51.022Z,11.48
2023-05-05T11:26:41.638Z,7.82
2023-05-05T11:29:11.341Z,11.43
2023-05-05T11:31:40.574Z,8.20
2023-05-05T11:34:29.491Z,10.45
2023-05-05T11:37:06.089Z,12.05
2023-05-05T11:39:58.298Z,13.43
2023-05-05T11:42:28.271Z,11.77
2023-05-05T11:44:57.965Z,17.83
2023-05-05T11:47:29.471Z,13.20
2023-05-05T11:49:59.333Z,13.57
2023-05-05T11:52:29.246Z,15.48
2023-05-05T11:55:02.482Z,16.60
2023-05-05T11:57:32.433Z,9.30
2023-05-05T12:00:05.344Z,12.07
2023-05-05T12:02:34.883Z,15.63
2023-05-05T12:05:04.498Z,13.50
2023-05-05T12:07:35.095Z,16.55
2023-05-05T12:10:04.735Z,13.13
2023-05-05T12:12:41.985Z,13.05
2023-05-05T12:15:11.814Z,12.35
2023-05-05T12:17:45.101Z,12.75
2023-05-05T12:20:15.131Z,12.63
2023-05-05T12:22:44.798Z,12.45
2023-05-05T12:25:13.998Z,12.57
2023-05-05T12:27:54.444Z,13.02
2023-05-05T12:30:24.675Z,8.00
2023-05-05T12:33:03.204Z,8.00
2023-05-05T12:35:33.471Z,13.30
2023-05-05T12:38:03.467Z,9.35
2023-05-05T12:40:50.613Z,7.47
2023-05-05T12:43:31.337Z,14.00
2023-05-05T12:46:06.736Z,13.23
2023-05-05T12:48:39.085Z,11.32
2023-05-05T12:51:20.952Z,9.38
2023-05-05T12:54:03.171Z,6.93
2023-05-05T12:56:36.685Z,10.68
2023-05-05T12:59:14.133Z,10.23
2023-05-05T13:01:57.405Z,12.25
2023-05-05T13:04:28.607Z,14.50
2023-05-05T13:07:15.385Z,13.38
2023-05-05T13:09:45.197Z,15.02
2023-05-05T13:12:15.110Z,11.05
2023-05-05T13:14:44.841Z,11.02
2023-05-05T13:17:15.112Z,18.05
2023-05-05T13:19:47.329Z,10.68
2023-05-05T13:22:16.897Z,12.00
2023-05-05T13:24:52.457Z,7.90
2023-05-05T13:27:23.168Z,11.73
2023-05-05T13:29:52.823Z,14.65
2023-05-05T13:32:23.271Z,10.63
2023-05-05T13:34:53.033Z,9.82
2023-05-05T13:37:22.566Z,11.88
2023-05-05T13:39:52.613Z,10.98
2023-05-05T13:42:21.708Z,11.73
2023-05-05T13:44:51.454Z,16.20
2023-05-05T13:47:20.673Z,15.68
2023-05-05T13:49:50.391Z,12.23
2023-05-05T13:52:19.460Z,17.13
2023-05-05T13:54:49.263Z,18.52
2023-05-05T13:57:18.583Z,15.15
2023-05-05T13:59:48.463Z,15.20
2023-05-05T14:02:17.869Z,13.00
2023-05-05T14:04:47.416Z,12.95
2023-05-05T14:07:17.040Z,11.35
2023-05-05T14:09:55.289Z,13.46
2023-05-05T14:12:24.733Z,13.93
2023-05-05T14:14:53.926Z,18.10
2023-05-05T14:17:23.437Z,18.73
2023-05-05T14:19:52.993Z,14.48
2023-05-05T14:22:22.535Z,14.00
2023-05-05T14:24:52.002Z,14.98
2023-05-05T14:27:21.986Z,12.35
2023-05-05T14:29:51.513Z,15.13
2023-05-05T14:32:21.863Z,14.80
2023-05-05T14:34:51.002Z,12.25
2023-05-05T14:37:20.694Z,13.27
2023-05-05T14:39:50.106Z,17.75
2023-05-05T14:42:19.613Z,19.38
2023-05-05T14:44:49.168Z,15.27
2023-05-05T14:47:18.623Z,17.88
2023-05-05T14:49:48.157Z,18.42
2023-05-05T14:52:17.741Z,17.52
2023-05-05T14:54:47.627Z,19.02
2023-05-05T14:57:17.445Z,18.48
2023-05-05T14:59:46.842Z,22.48
2023-05-05T15:02:15.990Z,22.52
2023-05-05T15:04:45.252Z,22.70
2023-05-05T15:07:15.070Z,22.40
2023-05-05T15:09:44.622Z,21.23
2023-05-05T15:12:13.946Z,24.95
2023-05-05T15:14:43.917Z,22.58
2023-05-05T15:17:13.086Z,23.38
2023-05-05T15:19:42.721Z,32.42
2023-05-05T15:22:11.908Z,23.77
2023-05-05T15:24:41.130Z,21.63
2023-05-05T15:27:10.416Z,29.52
2023-05-05T15:29:40.362Z,18.95
2023-05-05T15:32:09.416Z,21.65
2023-05-05T15:34:39.337Z,23.23
2023-05-05T15:37:08.700Z,28.20
2023-05-05T15:39:38.050Z,22.20
2023-05-05T15:42:08.085Z,28.13
2023-05-05T15:44:37.757Z,29.98
2023-05-05T15:47:09.110Z,23.95
2023-05-05T15:49:38.723Z,21.75
2023-05-05T15:52:08.995Z,22.70
2023-05-05T15:54:38.750Z,29.05
2023-05-05T15:57:07.909Z,32.22
2023-05-05T15:59:38.301Z,31.10
2023-05-05T16:02:07.920Z,27.73
2023-05-05T16:04:37.405Z,26.20
2023-05-05T16:07:07.792Z,30.65
2023-05-05T16:09:38.084Z,28.92
2023-05-05T16:12:07.571Z,29.38
2023-05-05T16:14:37.199Z,29.58
2023-05-05T16:17:07.070Z,35.25
2023-05-05T16:19:37.142Z,30.88
2023-05-05T16:22:06.724Z,39.92
2023-05-05T16:24:35.871Z,37.05
2023-05-05T16:27:05.717Z,39.05
2023-05-05T16:29:35.040Z,34.60
2023-05-05T16:32:04.104Z,34.35
2023-05-05T16:34:33.668Z,39.08
2023-05-05T16:37:03.011Z,37.85
2023-05-05T16:39:34.120Z,38.70
2023-05-05T16:42:04.539Z,38.17
2023-05-05T16:44:34.014Z,45.38
2023-05-05T16:47:03.176Z,45.00
2023-05-05T16:49:32.826Z,39.25
2023-05-05T16:52:02.545Z,38.80
2023-05-05T16:54:31.869Z,36.80
2023-05-05T16:57:01.538Z,36.88
2023-05-05T16:59:31.627Z,43.97
2023-05-05T17:02:01.304Z,41.95
2023-05-05T17:04:31.074Z,44.72
2023-05-05T17:07:00.252Z,35.40
2023-05-05T17:09:29.378Z,34.40
2023-05-05T17:11:58.854Z,40.67
2023-05-05T17:14:28.365Z,36.10
2023-05-05T17:16:58.185Z,38.15
2023-05-05T17:19:27.851Z,39.70
2023-05-05T17:21:57.168Z,41.95
2023-05-05T17:24:26.991Z,37.40
2023-05-05T17:26:57.438Z,32.42
2023-05-05T17:29:27.589Z,37.47
2023-05-05T17:31:56.812Z,37.15
2023-05-05T17:34:26.191Z,35.20
2023-05-05T17:36:55.588Z,34.00
2023-05-05T17:39:24.849Z,37.22
2023-05-05T17:41:54.209Z,32.97
2023-05-05T17:44:23.301Z,32.38
2023-05-05T17:46:53.317Z,31.58
2023-05-05T17:49:22.570Z,38.28
2023-05-05T17:51:51.938Z,35.90
2023-05-05T17:54:21.161Z,36.72
2023-05-05T17:56:50.545Z,37.55
2023-05-05T17:59:19.713Z,25.75
2023-05-05T18:01:49.719Z,39.25
2023-05-05T18:04:19.103Z,32.05
2023-05-05T18:06:48.247Z,38.60
2023-05-05T18:09:18.395Z,34.05
2023-05-05T18:11:47.670Z,40.88
2023-05-05T18:14:18.723Z,37.42
2023-05-05T18:16:51.393Z,26.05
2023-05-05T18:19:24.992Z,27.05
2023-05-05T18:21:58.534Z,31.27
2023-05-05T18:24:29.237Z,32.28
2023-05-05T18:26:59.350Z,30.85
2023-05-05T18:29:29.678Z,32.42
2023-05-05T18:31:59.032Z,34.63
2023-05-05T18:34:28.428Z,30.02
2023-05-05T18:36:58.504Z,29.45
2023-05-05T18:39:27.854Z,28.50
2023-05-05T18:41:56.963Z,33.60
2023-05-05T18:44:26.721Z,33.67
2023-05-05T18:46:56.001Z,41.28
2023-05-05T18:49:26.221Z,38.72
2023-05-05T18:51:57.713Z,40.15
2023-05-05T18:54:27.107Z,36.65
2023-05-05T18:56:56.231Z,36.72
2023-05-05T18:59:25.990Z,33.13
2023-05-05T19:01:55.747Z,32.30
2023-05-05T19:04:31.476Z,68.93
2023-05-05T19:07:02.150Z,32.78
2023-05-05T19:09:31.685Z,38.05
2023-05-05T19:12:00.840Z,41.25
2023-05-05T19:14:30.788Z,41.50
2023-05-05T19:17:00.550Z,39.35
2023-05-05T19:19:30.012Z,48.85
2023-05-05T19:22:00.666Z,50.10
2023-05-05T19:24:31.045Z,49.85
2023-05-05T19:27:00.382Z,55.00
2023-05-05T19:29:32.058Z,45.75
2023-05-05T19:32:03.579Z,56.55
2023-05-05T19:34:32.962Z,58.60
2023-05-05T19:37:02.456Z,51.13
2023-05-05T19:39:31.806Z,54.70
2023-05-05T19:42:00.880Z,48.80
2023-05-05T19:44:30.648Z,52.58
2023-05-05T19:47:00.032Z,47.05
2023-05-05T19:49:29.174Z,44.40
2023-05-05T19:52:00.020Z,45.63
2023-05-05T19:54:30.275Z,47.35
2023-05-05T19:56:59.612Z,56.15
2023-05-05T19:59:30.023Z,52.17
2023-05-05T20:02:00.008Z,44.17
2023-05-05T20:04:29.425Z,64.22
2023-05-05T20:06:58.857Z,49.85
2023-05-05T20:09:28.738Z,49.03
2023-05-05T20:12:00.483Z,53.85
2023-05-05T20:14:29.853Z,48.85
2023-05-05T20:16:59.310Z,53.38
2023-05-05T20:19:28.572Z,55.47
2023-05-05T20:21:58.343Z,57.45
2023-05-05T20:24:29.575Z,60.22
2023-05-05T20:26:59.201Z,60.97
2023-05-05T20:29:28.364Z,59.13
2023-05-05T20:32:02.491Z,71.18
2023-05-05T20:34:32.373Z,63.40
2023-05-05T20:37:01.891Z,53.53
2023-05-05T20:39:35.004Z,58.60
2023-05-05T20:42:04.485Z,53.70
2023-05-05T20:44:34.061Z,59.35
2023-05-05T20:47:04.020Z,59.83
2023-05-05T20:49:33.145Z,50.70
2023-05-05T20:52:02.412Z,55.13
2023-05-05T20:54:35.209Z,59.13
2023-05-05T20:57:04.617Z,53.45
2023-05-05T20:59:34.056Z,55.95
2023-05-05T21:02:03.607Z,50.78
2023-05-05T21:04:33.138Z,49.88
2023-05-05T21:07:02.297Z,52.92
2023-05-05T21:09:32.606Z,48.80
2023-05-05T21:12:02.128Z,49.45
2023-05-05T21:14:31.303Z,59.05
2023-05-05T21:17:00.635Z,47.38
2023-05-05T21:19:29.772Z,48.55
2023-05-05T21:22:00.196Z,52.85
2023-05-05T21:24:29.578Z,47.45
2023-05-05T21:26:58.761Z,52.65
2023-05-05T21:29:27.937Z,53.55
2023-05-05T21:31:57.435Z,51.00
2023-05-05T21:34:26.973Z,57.67
2023-05-05T21:36:56.367Z,51.95
2023-05-05T21:39:25.796Z,51.22
2023-05-05T21:41:55.503Z,53.47
2023-05-05T21:44:26.454Z,46.55
2023-05-05T21:46:55.902Z,46.70
2023-05-05T21:49:25.364Z,50.67
2023-05-05T21:51:54.364Z,51.65
2023-05-05T21:54:23.658Z,52.58
2023-05-05T21:56:52.900Z,41.83
2023-05-05T21:59:22.482Z,48.80
2023-05-05T22:01:51.989Z,52.08
2023-05-05T22:04:21.182Z,54.95
2023-05-05T22:06:50.188Z,50.97
2023-05-05T22:09:19.657Z,50.03
2023-05-05T22:11:48.780Z,49.08
2023-05-05T22:14:18.182Z,46.65
2023-05-05T22:16:47.647Z,59.08
2023-05-05T22:19:17.436Z,46.05
2023-05-05T22:21:46.559Z,44.17
2023-05-05T22:24:15.852Z,41.38
2023-05-05T22:26:45.013Z,48.03
2023-05-05T22:29:14.594Z,44.53
2023-05-05T22:31:43.703Z,57.92
2023-05-05T22:34:12.978Z,46.70
2023-05-05T22:36:43.373Z,45.47
2023-05-05T22:39:12.826Z,52.17
2023-05-05T22:41:42.301Z,46.17
2023-05-05T22:44:11.504Z,53.70
2023-05-05T22:46:40.610Z,50.05
2023-05-05T22:49:10.625Z,48.90
2023-05-05T22:51:40.273Z,48.00
2023-05-05T22:54:09.452Z,55.72
2023-05-05T22:56:38.864Z,52.47
2023-05-05T22:59:08.127Z,52.47
2023-05-05T23:01:37.872Z,47.22
2023-05-05T23:04:07.748Z,49.70
2023-05-05T23:06:37.116Z,46.92
2023-05-05T23:09:06.478Z,46.13
2023-05-05T23:11:35.678Z,44.33
2023-05-05T23:14:04.970Z,46.78
2023-05-05T23:16:34.692Z,50.05
2023-05-05T23:19:03.811Z,55.08
2023-05-05T23:21:38.880Z,48.22
2023-05-05T23:24:15.033Z,50.83
2023-05-05T23:26:44.686Z,48.13
2023-05-05T23:29:13.955Z,50.78
2023-05-05T23:31:43.148Z,47.05
2023-05-05T23:34:12.637Z,51.28
2023-05-05T23:36:41.741Z,51.53
2023-05-05T23:39:11.385Z,54.13
2023-05-05T23:41:40.756Z,57.60
2023-05-05T23:44:09.966Z,53.10
2023-05-05T23:46:39.570Z,48.33
2023-05-05T23:49:08.997Z,46.25
2023-05-05T23:51:38.581Z,52.65
2023-05-05T23:54:07.743Z,50.03
2023-05-05T23:56:37.574Z,54.95
2023-05-05T23:59:07.328Z,57.95
